createdAt,value
2022-07-25T00:01:57.881Z,3.80
2022-07-25T00:04:26.385Z,4.10
2022-07-25T00:06:54.127Z,4.80
2022-07-25T00:09:21.989Z,3.70
2022-07-25T00:11:50.357Z,4.30
2022-07-25T00:14:18.103Z,4.30
2022-07-25T00:16:45.866Z,4.30
2022-07-25T00:19:13.823Z,4.00
2022-07-25T00:21:41.537Z,3.90
2022-07-25T00:24:10.371Z,4.00
2022-07-25T00:26:40.434Z,4.30
2022-07-25T00:29:08.509Z,4.10
2022-07-25T00:31:36.554Z,4.00
2022-07-25T00:34:04.640Z,4.20
2022-07-25T00:36:32.803Z,4.30
2022-07-25T00:39:00.555Z,4.50
2022-07-25T00:41:28.263Z,3.80
2022-07-25T00:43:56.087Z,3.80
2022-07-25T00:46:24.156Z,4.10
2022-07-25T00:48:52.479Z,4.00
2022-07-25T00:51:20.848Z,4.20
2022-07-25T00:53:49.185Z,4.20
2022-07-25T00:56:17.091Z,4.20
2022-07-25T00:58:45.650Z,3.60
2022-07-25T01:01:13.907Z,3.70
2022-07-25T01:03:42.045Z,3.70
2022-07-25T01:06:09.833Z,3.80
2022-07-25T01:08:37.540Z,3.60
2022-07-25T01:11:05.861Z,3.70
2022-07-25T01:13:35.242Z,3.80
2022-07-25T01:16:03.256Z,3.60
2022-07-25T01:18:31.337Z,3.60
2022-07-25T01:20:59.219Z,3.90
2022-07-25T01:23:27.801Z,4.00
2022-07-25T01:25:55.572Z,4.00
2022-07-25T01:28:23.277Z,4.00
2022-07-25T01:30:51.099Z,4.00
2022-07-25T01:33:20.584Z,4.10
2022-07-25T01:35:49.273Z,4.00
2022-07-25T01:38:17.330Z,4.30
2022-07-25T01:40:45.270Z,3.80
2022-07-25T01:43:14.208Z,4.20
2022-07-25T01:45:42.131Z,4.10
2022-07-25T01:48:10.206Z,4.20
2022-07-25T01:50:38.488Z,4.30
2022-07-25T01:53:06.205Z,4.80
2022-07-25T01:55:34.219Z,4.50
2022-07-25T01:58:01.965Z,4.50
2022-07-25T02:00:30.648Z,4.30
2022-07-25T02:03:17.005Z,4.40
2022-07-25T02:05:45.371Z,4.40
2022-07-25T02:08:13.102Z,4.50
2022-07-25T02:10:41.599Z,3.70
2022-07-25T02:13:09.251Z,4.20
2022-07-25T02:15:39.355Z,4.30
2022-07-25T02:18:07.154Z,4.40
2022-07-25T02:20:34.797Z,4.60
2022-07-25T02:23:03.673Z,4.80
2022-07-25T02:25:32.072Z,4.80
2022-07-25T02:28:00.093Z,4.30
2022-07-25T02:30:28.158Z,4.30
2022-07-25T02:32:56.260Z,4.40
2022-07-25T02:35:24.773Z,5.10
2022-07-25T02:37:52.931Z,4.20
2022-07-25T02:40:20.695Z,4.10
2022-07-25T02:42:49.199Z,4.40
2022-07-25T02:47:46.221Z,4.10
2022-07-25T02:50:14.775Z,4.20
2022-07-25T02:52:43.667Z,4.10
2022-07-25T02:55:12.184Z,3.90
2022-07-25T02:57:41.198Z,4.10
2022-07-25T03:00:09.832Z,4.00
2022-07-25T03:02:37.845Z,4.30
2022-07-25T03:05:08.286Z,4.20
2022-07-25T03:07:36.412Z,3.90
2022-07-25T03:10:08.937Z,4.30
2022-07-25T03:12:40.915Z,4.20
2022-07-25T03:15:09.813Z,3.80
2022-07-25T03:17:37.891Z,3.80
2022-07-25T03:20:07.052Z,4.10
2022-07-25T03:22:35.224Z,4.20
2022-07-25T03:25:04.595Z,4.20
2022-07-25T03:27:32.475Z,4.20
2022-07-25T03:30:00.253Z,4.10
2022-07-25T03:32:28.254Z,3.80
2022-07-25T03:34:56.138Z,3.90
2022-07-25T03:37:23.914Z,3.90
2022-07-25T03:39:51.654Z,3.50
2022-07-25T03:42:24.933Z,4.00
2022-07-25T03:44:54.237Z,4.10
2022-07-25T03:47:21.926Z,3.70
2022-07-25T03:49:51.167Z,4.50
2022-07-25T03:52:19.107Z,4.60
2022-07-25T03:54:46.768Z,3.80
2022-07-25T03:57:14.993Z,4.30
2022-07-25T03:59:42.678Z,4.40
2022-07-25T04:02:11.579Z,4.30
2022-07-25T04:04:39.366Z,4.40
2022-07-25T04:07:07.175Z,4.30
2022-07-25T04:09:35.009Z,4.30
2022-07-25T04:12:03.054Z,4.30
2022-07-25T04:14:30.737Z,4.10
2022-07-25T04:16:58.543Z,4.10
2022-07-25T04:19:26.340Z,4.00
2022-07-25T04:21:56.826Z,4.40
2022-07-25T04:24:24.516Z,4.60
2022-07-25T04:26:52.436Z,4.40
2022-07-25T04:29:20.215Z,4.00
2022-07-25T04:31:48.068Z,4.00
2022-07-25T04:34:15.904Z,4.10
2022-07-25T04:36:43.639Z,4.10
2022-07-25T04:39:11.586Z,4.40
2022-07-25T04:41:39.313Z,4.20
2022-07-25T04:44:08.382Z,4.40
2022-07-25T04:49:04.281Z,4.30
2022-07-25T04:51:32.235Z,4.60
2022-07-25T04:53:59.967Z,4.30
2022-07-25T04:56:27.902Z,4.40
2022-07-25T04:58:56.315Z,4.40
2022-07-25T05:01:24.261Z,4.50
2022-07-25T05:03:52.391Z,4.70
2022-07-25T05:06:20.261Z,4.70
2022-07-25T05:08:48.278Z,4.60
2022-07-25T05:11:16.180Z,4.40
2022-07-25T05:13:44.690Z,4.20
2022-07-25T05:16:12.526Z,4.00
2022-07-25T05:18:40.611Z,4.10
2022-07-25T05:21:11.288Z,4.40
2022-07-25T05:23:39.639Z,3.70
2022-07-25T05:26:07.499Z,4.60
2022-07-25T05:28:35.661Z,4.20
2022-07-25T05:31:03.687Z,4.20
2022-07-25T05:33:32.070Z,4.60
2022-07-25T05:35:59.763Z,4.30
2022-07-25T05:38:27.447Z,3.80
2022-07-25T05:40:55.487Z,3.70
2022-07-25T05:43:23.253Z,4.00
2022-07-25T05:45:51.044Z,3.20
2022-07-25T05:48:19.132Z,3.60
2022-07-25T05:50:46.955Z,3.50
2022-07-25T05:53:15.253Z,3.60
2022-07-25T05:55:43.102Z,3.90
2022-07-25T05:58:10.745Z,3.50
2022-07-25T06:00:39.425Z,3.90
2022-07-25T06:03:07.153Z,3.70
2022-07-25T06:05:34.981Z,3.60
2022-07-25T06:08:02.868Z,3.30
2022-07-25T06:10:30.647Z,3.50
2022-07-25T06:13:00.842Z,3.30
2022-07-25T06:15:28.711Z,3.40
2022-07-25T06:17:57.277Z,3.50
2022-07-25T06:20:25.723Z,3.30
2022-07-25T06:22:54.239Z,3.20
2022-07-25T06:25:22.092Z,2.90
2022-07-25T06:27:50.213Z,3.30
2022-07-25T06:30:20.368Z,3.00
2022-07-25T06:32:49.647Z,3.20
2022-07-25T06:35:17.656Z,3.00
2022-07-25T06:37:46.278Z,3.20
2022-07-25T06:40:14.589Z,2.80
2022-07-25T06:42:43.985Z,2.80
2022-07-25T06:45:13.235Z,2.90
2022-07-25T06:47:42.295Z,3.10
2022-07-25T06:50:13.292Z,2.90
2022-07-25T06:52:41.334Z,3.00
2022-07-25T06:55:10.113Z,3.00
2022-07-25T06:57:38.435Z,2.90
2022-07-25T07:00:09.726Z,3.20
2022-07-25T07:02:52.004Z,3.00
2022-07-25T07:05:20.021Z,3.00
2022-07-25T07:07:48.329Z,3.10
2022-07-25T07:10:17.301Z,3.10
2022-07-25T07:12:45.180Z,3.00
2022-07-25T07:15:14.127Z,3.20
2022-07-25T07:17:42.369Z,3.10
2022-07-25T07:20:11.878Z,3.10
2022-07-25T07:22:49.729Z,2.80
2022-07-25T07:25:19.762Z,3.00
2022-07-25T07:27:47.732Z,2.50
2022-07-25T07:30:17.621Z,2.80
2022-07-25T07:32:47.510Z,3.10
2022-07-25T07:35:16.680Z,2.80
2022-07-25T07:37:45.331Z,2.60
2022-07-25T07:40:17.142Z,2.60
2022-07-25T07:42:47.524Z,2.60
2022-07-25T07:45:22.200Z,2.50
2022-07-25T07:47:52.114Z,2.60
2022-07-25T07:50:25.715Z,2.30
2022-07-25T07:52:55.195Z,2.30
2022-07-25T07:55:42.320Z,2.30
2022-07-25T07:58:12.054Z,2.30
2022-07-25T08:00:39.879Z,2.20
2022-07-25T08:03:09.045Z,2.30
2022-07-25T08:05:39.599Z,2.30
2022-07-25T08:08:10.965Z,2.50
2022-07-25T08:10:43.097Z,2.40
2022-07-25T08:13:14.341Z,2.30
2022-07-25T08:15:43.600Z,2.60
2022-07-25T08:18:17.155Z,2.70
2022-07-25T08:20:47.049Z,2.10
2022-07-25T08:23:15.039Z,2.30
2022-07-25T08:25:43.511Z,2.10
2022-07-25T08:28:11.669Z,2.30
2022-07-25T08:30:40.541Z,2.70
2022-07-25T08:33:13.097Z,2.30
2022-07-25T08:35:45.405Z,2.30
2022-07-25T08:38:14.136Z,2.30
2022-07-25T08:40:41.950Z,2.40
2022-07-25T08:43:14.658Z,2.20
2022-07-25T08:45:54.789Z,2.40
2022-07-25T08:48:24.573Z,2.30
2022-07-25T08:50:54.131Z,2.10
2022-07-25T08:53:38.194Z,2.10
2022-07-25T08:56:12.564Z,2.00
2022-07-25T08:58:43.841Z,2.10
2022-07-25T09:01:13.470Z,2.00
2022-07-25T09:03:43.083Z,2.10
2022-07-25T09:06:21.895Z,2.30
2022-07-25T09:08:57.545Z,1.90
2022-07-25T09:11:33.887Z,2.40
2022-07-25T09:14:14.998Z,2.20
2022-07-25T09:16:45.892Z,2.30
2022-07-25T09:19:14.524Z,2.70
2022-07-25T09:24:16.442Z,2.00
2022-07-25T09:26:53.196Z,1.80
2022-07-25T09:29:27.157Z,2.20
2022-07-25T09:31:56.198Z,2.70
2022-07-25T09:34:38.885Z,1.80
2022-07-25T09:37:18.406Z,2.10
2022-07-25T09:39:52.065Z,2.70
2022-07-25T09:42:28.648Z,2.80
2022-07-25T09:45:03.235Z,3.20
2022-07-25T09:47:32.383Z,5.10
2022-07-25T09:50:01.146Z,7.20
2022-07-25T09:52:28.885Z,10.90
2022-07-25T09:54:57.133Z,16.40
2022-07-25T09:57:25.926Z,22.20
2022-07-25T09:59:56.017Z,30.70
2022-07-25T10:02:26.518Z,40.10
2022-07-25T10:05:05.092Z,51.60
2022-07-25T10:07:37.313Z,68.80
2022-07-25T10:10:06.123Z,83.30
2022-07-25T10:12:34.070Z,95.60
2022-07-25T10:15:11.011Z,111.10
2022-07-25T10:17:41.151Z,125.90
2022-07-25T10:20:10.421Z,136.70
2022-07-25T10:22:57.811Z,148.10
2022-07-25T10:25:26.828Z,165.60
2022-07-25T10:28:04.012Z,177.10
2022-07-25T10:30:37.079Z,193.60
2022-07-25T10:33:17.569Z,206.10
2022-07-25T10:35:45.910Z,221.50
2022-07-25T10:38:13.701Z,237.60
2022-07-25T10:40:47.441Z,236.10
2022-07-25T10:43:19.669Z,233.80
2022-07-25T10:46:00.111Z,228.30
2022-07-25T10:48:32.410Z,231.50
2022-07-25T10:51:11.496Z,230.00
2022-07-25T10:53:43.889Z,218.80
2022-07-25T10:56:15.714Z,206.50
2022-07-25T10:58:55.727Z,183.20
2022-07-25T11:01:26.015Z,180.40
2022-07-25T11:03:57.030Z,175.00
2022-07-25T11:06:38.096Z,154.60
2022-07-25T11:09:18.652Z,135.50
2022-07-25T11:11:49.940Z,132.30
2022-07-25T11:14:40.968Z,113.50
2022-07-25T11:17:23.345Z,86.90
2022-07-25T11:20:02.115Z,59.10
2022-07-25T11:22:31.446Z,36.40
2022-07-25T11:24:59.970Z,22.10
2022-07-25T11:27:30.809Z,14.50
2022-07-25T11:30:16.061Z,10.10
2022-07-25T11:32:45.431Z,6.60
2022-07-25T11:35:14.763Z,4.30
2022-07-25T11:37:48.742Z,2.90
2022-07-25T11:40:18.635Z,2.00
2022-07-25T11:42:48.218Z,1.50
2022-07-25T11:45:43.985Z,1.00
2022-07-25T11:48:14.273Z,0.90
2022-07-25T11:50:43.920Z,0.60
2022-07-25T11:53:15.167Z,0.40
2022-07-25T11:55:44.639Z,0.30
2022-07-25T11:58:13.679Z,0.20
2022-07-25T12:00:44.199Z,0.20
2022-07-25T12:03:20.465Z,0.20
2022-07-25T12:05:49.569Z,0.10
2022-07-25T12:08:19.771Z,0.10
2022-07-25T12:10:49.357Z,0.10
2022-07-25T12:13:27.877Z,0.10
2022-07-25T12:16:00.143Z,0.10
2022-07-25T12:18:28.335Z,0.00
2022-07-25T12:20:56.364Z,0.00
2022-07-25T12:23:24.381Z,0.10
2022-07-25T12:28:19.712Z,0.10
2022-07-25T12:30:52.905Z,0.20
2022-07-25T12:33:24.349Z,1.60
2022-07-25T12:38:20.117Z,1.70
2022-07-25T12:40:48.053Z,1.60
2022-07-25T12:45:44.367Z,1.80
2022-07-25T12:48:14.607Z,1.60
2022-07-25T12:50:43.331Z,1.70
2022-07-25T12:53:13.472Z,1.70
2022-07-25T12:55:41.524Z,1.90
2022-07-25T12:58:10.523Z,2.10
2022-07-25T13:00:38.598Z,1.80
2022-07-25T13:03:06.500Z,1.80
2022-07-25T13:05:34.492Z,1.90
2022-07-25T13:08:05.351Z,1.90
2022-07-25T13:10:33.043Z,2.10
2022-07-25T13:13:00.708Z,1.90
2022-07-25T13:15:30.320Z,1.90
2022-07-25T13:17:58.791Z,1.90
2022-07-25T13:20:27.170Z,1.90
2022-07-25T13:22:55.265Z,1.80
2022-07-25T13:25:23.193Z,2.00
2022-07-25T13:27:50.951Z,1.60
2022-07-25T13:30:18.692Z,1.90
2022-07-25T13:32:46.449Z,2.00
2022-07-25T13:35:17.763Z,1.80
2022-07-25T13:37:48.346Z,1.90
2022-07-25T13:40:16.072Z,1.80
2022-07-25T13:42:43.815Z,1.80
2022-07-25T13:45:11.773Z,2.00
2022-07-25T13:47:39.945Z,2.20
2022-07-25T13:50:08.376Z,2.10
2022-07-25T13:52:37.824Z,1.80
2022-07-25T13:55:06.349Z,1.80
2022-07-25T13:57:34.173Z,1.70
2022-07-25T14:00:02.310Z,1.70
2022-07-25T14:02:32.711Z,1.70
2022-07-25T14:05:03.912Z,1.60
2022-07-25T14:07:32.384Z,1.60
2022-07-25T14:10:01.041Z,1.60
2022-07-25T14:14:56.906Z,1.40
2022-07-25T14:17:30.013Z,1.70
2022-07-25T14:19:58.187Z,1.90
2022-07-25T14:22:26.767Z,1.60
2022-07-25T14:24:54.613Z,1.70
2022-07-25T14:27:24.940Z,1.60
2022-07-25T14:29:53.942Z,1.70
2022-07-25T14:32:21.976Z,1.60
2022-07-25T14:34:49.902Z,1.50
2022-07-25T14:37:18.978Z,1.60
2022-07-25T14:39:47.753Z,1.40
2022-07-25T14:42:16.069Z,1.60
2022-07-25T14:44:44.037Z,1.40
2022-07-25T14:47:12.735Z,1.50
2022-07-25T14:49:41.323Z,1.40
2022-07-25T14:52:11.507Z,1.80
2022-07-25T14:54:40.229Z,1.40
2022-07-25T14:57:09.540Z,1.50
2022-07-25T14:59:37.608Z,1.20
2022-07-25T15:02:05.343Z,1.40
2022-07-25T15:04:33.658Z,1.40
2022-07-25T15:07:01.463Z,1.30
2022-07-25T15:09:29.115Z,1.50
2022-07-25T15:11:56.862Z,1.80
2022-07-25T15:14:24.644Z,1.60
2022-07-25T15:16:52.617Z,1.50
2022-07-25T15:19:20.476Z,1.60
2022-07-25T15:21:48.297Z,1.40
2022-07-25T15:24:16.238Z,1.60
2022-07-25T15:26:44.482Z,1.40
2022-07-25T15:29:15.356Z,1.60
2022-07-25T15:31:43.370Z,1.50
2022-07-25T15:34:11.145Z,1.40
2022-07-25T15:36:39.093Z,1.40
2022-07-25T15:39:07.912Z,1.30
2022-07-25T15:41:36.039Z,1.50
2022-07-25T15:44:04.189Z,1.50
2022-07-25T15:46:32.822Z,1.50
2022-07-25T15:49:01.096Z,1.40
2022-07-25T15:51:28.960Z,1.50
2022-07-25T15:53:56.707Z,1.80
2022-07-25T15:56:25.677Z,1.30
2022-07-25T15:58:53.528Z,1.60
2022-07-25T16:01:21.607Z,1.60
2022-07-25T16:03:49.647Z,1.80
2022-07-25T16:06:20.827Z,3.70
2022-07-25T16:08:50.126Z,1.80
2022-07-25T16:11:24.863Z,2.40
2022-07-25T16:13:53.809Z,2.20
2022-07-25T16:18:53.709Z,2.60
2022-07-25T16:21:21.414Z,1.90
2022-07-25T16:23:49.196Z,2.10
2022-07-25T16:26:17.329Z,1.90
2022-07-25T16:28:45.046Z,1.40
2022-07-25T16:31:12.878Z,1.90
2022-07-25T16:33:41.054Z,1.90
2022-07-25T16:36:08.944Z,2.20
2022-07-25T16:38:36.901Z,1.80
2022-07-25T16:41:04.849Z,1.80
2022-07-25T16:43:32.638Z,1.60
2022-07-25T16:46:02.036Z,1.60
2022-07-25T16:48:31.027Z,1.50
2022-07-25T16:50:59.082Z,1.60
2022-07-25T16:53:27.310Z,1.60
2022-07-25T16:55:55.002Z,1.50
2022-07-25T16:58:22.907Z,1.70
2022-07-25T17:00:51.114Z,1.70
2022-07-25T17:03:18.890Z,1.50
2022-07-25T17:05:47.296Z,1.60
2022-07-25T17:08:15.079Z,1.70
2022-07-25T17:10:42.936Z,1.70
2022-07-25T17:13:10.954Z,1.60
2022-07-25T17:15:39.823Z,1.90
2022-07-25T17:18:07.599Z,1.80
2022-07-25T17:20:35.344Z,1.60
2022-07-25T17:23:03.800Z,1.80
2022-07-25T17:25:32.055Z,2.00
2022-07-25T17:28:00.971Z,1.90
2022-07-25T17:30:28.873Z,1.90
2022-07-25T17:32:58.656Z,1.80
2022-07-25T17:35:26.385Z,2.00
2022-07-25T17:37:54.086Z,1.90
2022-07-25T17:40:21.883Z,1.90
2022-07-25T17:42:49.704Z,1.70
2022-07-25T17:45:17.749Z,1.90
2022-07-25T17:47:46.465Z,2.10
2022-07-25T17:50:14.385Z,1.70
2022-07-25T17:52:42.046Z,1.70
2022-07-25T17:55:11.988Z,2.20
2022-07-25T17:57:42.315Z,2.00
2022-07-25T18:00:12.044Z,1.90
2022-07-25T18:02:41.283Z,1.90
2022-07-25T18:05:09.335Z,2.00
2022-07-25T18:07:40.752Z,2.20
2022-07-25T18:10:08.772Z,2.20
2022-07-25T18:12:36.696Z,2.20
2022-07-25T18:15:05.501Z,2.20
2022-07-25T18:17:33.970Z,2.20
2022-07-25T18:20:02.446Z,2.70
2022-07-25T18:22:30.820Z,2.60
2022-07-25T18:24:58.983Z,2.20
2022-07-25T18:27:27.410Z,2.30
2022-07-25T18:29:55.318Z,2.50
2022-07-25T18:32:22.949Z,2.60
2022-07-25T18:34:50.836Z,2.70
2022-07-25T18:37:19.203Z,2.50
2022-07-25T18:39:46.890Z,2.50
2022-07-25T18:42:14.707Z,2.30
2022-07-25T18:44:42.404Z,2.50
2022-07-25T18:47:10.970Z,2.80
2022-07-25T18:49:38.738Z,2.50
2022-07-25T18:52:06.580Z,2.70
2022-07-25T18:54:34.288Z,2.80
2022-07-25T18:57:03.472Z,2.70
2022-07-25T18:59:31.144Z,2.60
2022-07-25T19:01:58.879Z,2.60
2022-07-25T19:04:26.805Z,2.30
2022-07-25T19:06:55.299Z,2.30
2022-07-25T19:09:23.663Z,2.50
2022-07-25T19:11:52.489Z,2.50
2022-07-25T19:14:23.183Z,2.90
2022-07-25T19:16:50.886Z,2.40
2022-07-25T19:19:18.639Z,2.60
2022-07-25T19:21:46.509Z,3.10
2022-07-25T19:24:14.577Z,3.10
2022-07-25T19:26:42.679Z,3.00
2022-07-25T19:29:10.628Z,3.00
2022-07-25T19:31:38.606Z,3.20
2022-07-25T19:34:07.414Z,3.60
2022-07-25T19:36:35.399Z,3.40
2022-07-25T19:39:03.923Z,3.50
2022-07-25T19:41:32.406Z,3.50
2022-07-25T19:44:00.205Z,3.60
2022-07-25T19:46:31.480Z,3.60
2022-07-25T19:49:00.930Z,3.40
2022-07-25T19:51:28.650Z,3.40
2022-07-25T19:53:56.509Z,3.10
2022-07-25T19:56:24.697Z,3.20
2022-07-25T19:58:52.748Z,2.90
2022-07-25T20:01:20.918Z,3.10
2022-07-25T20:03:48.886Z,3.10
2022-07-25T20:06:16.691Z,3.20
2022-07-25T20:08:44.476Z,3.10
2022-07-25T20:11:13.053Z,3.30
2022-07-25T20:13:40.878Z,3.40
2022-07-25T20:16:08.705Z,3.30
2022-07-25T20:18:36.469Z,3.30
2022-07-25T20:21:05.121Z,3.40
2022-07-25T20:23:32.928Z,3.40
2022-07-25T20:26:02.277Z,3.20
2022-07-25T20:30:58.579Z,3.40
2022-07-25T20:33:28.323Z,3.70
2022-07-25T20:35:56.844Z,3.20
2022-07-25T20:38:28.252Z,3.50
2022-07-25T20:40:56.432Z,3.60
2022-07-25T20:43:25.318Z,3.50
2022-07-25T20:45:55.021Z,3.50
2022-07-25T20:48:23.410Z,3.70
2022-07-25T20:50:51.423Z,3.70
2022-07-25T20:53:19.850Z,3.70
2022-07-25T20:55:47.593Z,3.80
2022-07-25T20:58:15.896Z,4.30
2022-07-25T21:00:44.303Z,4.10
2022-07-25T21:03:12.142Z,4.20
2022-07-25T21:05:42.038Z,4.00
2022-07-25T21:08:11.482Z,4.40
2022-07-25T21:10:39.458Z,4.40
2022-07-25T21:13:07.125Z,4.50
2022-07-25T21:15:35.369Z,4.50
2022-07-25T21:18:03.280Z,5.10
2022-07-25T21:20:31.281Z,4.00
2022-07-25T21:22:59.110Z,4.70
2022-07-25T21:25:27.014Z,4.70
2022-07-25T21:27:54.689Z,4.70
2022-07-25T21:30:23.013Z,4.90
2022-07-25T21:32:50.719Z,4.30
2022-07-25T21:35:18.637Z,4.40
2022-07-25T21:37:46.416Z,4.50
2022-07-25T21:40:14.479Z,4.40
2022-07-25T21:42:42.261Z,4.00
2022-07-25T21:45:10.790Z,4.40
2022-07-25T21:47:38.759Z,4.90
2022-07-25T21:50:26.051Z,4.00
2022-07-25T21:52:53.871Z,4.50
2022-07-25T21:55:21.922Z,4.30
2022-07-25T21:57:51.327Z,4.30
2022-07-25T22:00:19.834Z,4.20
2022-07-25T22:02:48.401Z,4.30
2022-07-25T22:05:18.888Z,4.50
2022-07-25T22:07:47.511Z,4.50
2022-07-25T22:10:16.813Z,4.30
2022-07-25T22:12:44.831Z,4.00
2022-07-25T22:15:13.744Z,4.10
2022-07-25T22:17:48.567Z,4.40
2022-07-25T22:20:18.980Z,4.40
2022-07-25T22:22:47.818Z,4.60
2022-07-25T22:25:16.509Z,4.50
2022-07-25T22:27:44.589Z,4.20
2022-07-25T22:30:18.269Z,4.70
2022-07-25T22:32:48.421Z,4.40
2022-07-25T22:35:17.241Z,4.50
2022-07-25T22:37:45.828Z,4.40
2022-07-25T22:40:14.224Z,4.50
2022-07-25T22:42:41.987Z,4.10
2022-07-25T22:45:10.406Z,4.30
2022-07-25T22:47:38.544Z,4.30
2022-07-25T22:50:07.739Z,4.20
2022-07-25T22:55:03.860Z,4.20
2022-07-25T22:57:37.230Z,4.20
2022-07-25T23:00:07.902Z,4.30
2022-07-25T23:02:35.921Z,4.50
2022-07-25T23:05:05.385Z,4.10
2022-07-25T23:10:01.695Z,4.30
2022-07-25T23:12:29.417Z,4.30
2022-07-25T23:14:57.292Z,4.00
2022-07-25T23:17:25.027Z,4.30
2022-07-25T23:19:54.569Z,5.00
2022-07-25T23:22:24.198Z,4.60
2022-07-25T23:24:52.325Z,4.50
2022-07-25T23:27:20.319Z,4.30
2022-07-25T23:29:48.499Z,4.10
2022-07-25T23:32:16.217Z,4.50
2022-07-25T23:34:44.796Z,4.30
2022-07-25T23:37:12.529Z,3.90
2022-07-25T23:39:40.235Z,4.50
2022-07-25T23:42:08.073Z,4.00
2022-07-25T23:44:36.592Z,4.10
2022-07-25T23:47:08.060Z,4.10
2022-07-25T23:49:38.814Z,4.10
2022-07-25T23:52:06.531Z,4.30
2022-07-25T23:54:38.370Z,4.30
2022-07-25T23:57:07.407Z,4.10
2022-07-25T23:59:35.919Z,4.20
